Archival Weather

Nawabshah

Nawabshah, Pakistan (OPNH)

Report from: Tuesday, September 19, 2023 10:00 AM PKT
Current time: Monday, June 17, 2024 2:26 PM PKT

Current weather – Weather history – Daily summaries
Weather forecast

Temperature32.0°C (89.6°F)
Heat index40.7°C (105.2°F)
Dew point26.0°C (78.8°F)
Winds 6 kts (3.1 m/s, 6.9 mph) Northwest (315°)
Visibility3.7 mi. (6 km)
Clouds Scattered clouds 3,500 ft. (1,067 m)
Scattered clouds 10,000 ft. (3,048 m)
Altimeter29.59 in.Hg (1002 mB)
Relative humidity71 %
Density altitude2,767 ft. (843 m)
Flight conditions Marginal Visual Meteorological Conditions
Raw dataOPNH 190500Z 31506KT 6000 SCT035 SCT100 32/26 Q1002
An error has occurred. This application may no longer respond until reloaded. Reload 🗙